Time;durP1;ratioP1;P1;durP2;ratioP2;P2;SDS_P1;SDS_P2;PMS_P1;PMS_P2;Temp;Humidity;BMP_temperature;BMP_pressure;BME280_temperature;BME280_humidity;BME280_pressure;Samples;Min_cycle;Max_cycle;Signal;HPM_P1;HPM_P2
2021/05/09 00:02:24;;;;;;;;;;;10.60;94.40;;;9.43;63.44;95494.00;10355776;28;2204;-82
2021/05/09 00:07:27;;;;;;;;;;;10.50;95.00;;;9.44;63.50;95494.78;10412615;28;2139;-81
2021/05/09 00:12:29;;;;;;;;;;;10.60;95.30;;;9.44;63.50;95494.78;10352238;28;2119;-83
2021/05/09 00:17:31;;;;;;;;;;;10.60;95.10;;;9.40;63.94;95491.84;10381878;28;2165;-84
2021/05/09 00:22:32;;;;;;;;;;;10.50;95.50;;;9.37;63.68;95488.91;10367481;28;2072;-82
2021/05/09 00:27:34;;;;;;;;;;;10.50;95.80;;;9.38;64.30;95493.19;10365877;28;1917;-83
2021/05/09 00:32:36;;;;;;;;;;;10.50;96.20;;;9.28;64.68;95485.97;10377898;28;2029;-83
2021/05/09 00:37:38;;;;;;;;;;;10.40;96.50;;;9.18;65.44;95481.44;10385639;28;2056;-82
2021/05/09 00:42:40;;;;;;;;;;;10.30;97.00;;;9.20;65.00;95483.84;10379791;28;2236;-83
2021/05/09 00:47:42;;;;;;;;;;;10.30;97.40;;;9.15;65.60;95481.19;10383758;28;2005;-82
2021/05/09 00:52:44;;;;;;;;;;;10.20;97.70;;;9.12;65.63;95477.16;10374123;28;1848;-84
2021/05/09 00:57:45;;;;;;;;;;;10.20;98.10;;;9.07;65.77;95479.84;10377233;28;1919;-85
2021/05/09 01:02:47;;;;;;;;;;;10.10;98.30;;;8.96;66.25;95477.47;10381351;28;3053;-80
2021/05/09 01:07:49;;;;;;;;;;;10.10;98.70;;;8.87;67.05;95477.22;10357513;28;2235;-84
2021/05/09 01:12:51;;;;;;;;;;;10.00;99.20;;;8.76;67.62;95478.28;10362968;28;1970;-83
2021/05/09 01:17:53;;;;;;;;;;;9.90;99.90;;;8.71;67.45;95464.88;10374193;28;2347;-81
2021/05/09 01:22:55;;;;;;;;;;;9.80;99.90;;;8.54;68.58;95463.28;10372595;28;1866;-82
2021/05/09 01:27:57;;;;;;;;;;;9.90;99.90;;;8.53;68.26;95458.22;10378986;28;2148;-83
2021/05/09 01:32:59;;;;;;;;;;;9.70;99.90;;;8.49;68.45;95457.94;10374029;28;1942;-85
2021/05/09 01:38:01;;;;;;;;;;;10.00;99.90;;;8.46;69.17;95452.28;10367106;28;2073;-83
2021/05/09 01:43:02;;;;;;;;;;;9.60;99.90;;;8.49;68.75;95455.25;10353547;28;2102;-85
2021/05/09 01:48:04;;;;;;;;;;;9.50;99.90;;;8.51;68.21;95450.41;10359112;28;2211;-83
2021/05/09 01:53:06;;;;;;;;;;;9.60;99.90;;;8.52;67.40;95451.22;10349899;28;2047;-83
2021/05/09 01:58:08;;;;;;;;;;;10.00;99.90;;;8.47;67.92;95454.72;10354333;28;2234;-83
2021/05/09 02:03:10;;;;;;;;;;;9.60;99.90;;;8.50;67.43;95446.13;10362513;28;2229;-84
2021/05/09 02:08:12;;;;;;;;;;;9.50;99.90;;;8.38;68.11;95445.59;10359285;28;2071;-83
2021/05/09 02:13:13;;;;;;;;;;;10.00;99.90;;;8.37;67.68;95442.13;10358262;28;2027;-82
2021/05/09 02:18:15;;;;;;;;;;;9.50;99.90;;;8.46;66.89;95438.88;10360602;28;2083;-84
2021/05/09 02:23:17;;;;;;;;;;;9.50;99.90;;;8.43;66.74;95445.59;10345840;28;2079;-83
2021/05/09 02:28:19;;;;;;;;;;;9.60;99.90;;;8.52;66.13;95443.19;10357602;28;2110;-82
2021/05/09 02:33:21;;;;;;;;;;;9.70;99.90;;;8.65;65.50;95445.31;10348481;28;2044;-84
2021/05/09 02:38:23;;;;;;;;;;;9.60;99.90;;;8.53;66.06;95445.63;10371340;28;2239;-83
2021/05/09 02:43:24;;;;;;;;;;;9.80;99.90;;;8.47;66.30;95441.31;10359294;28;2015;-83
2021/05/09 02:48:26;;;;;;;;;;;9.60;99.90;;;8.47;66.75;95443.22;10356296;28;2119;-82
2021/05/09 02:53:28;;;;;;;;;;;9.60;99.90;;;8.43;66.10;95440.25;10359124;28;2203;-83
2021/05/09 02:58:30;;;;;;;;;;;9.80;99.90;;;8.34;66.78;95447.19;10383658;28;2477;-85
2021/05/09 03:03:32;;;;;;;;;;;9.50;99.90;;;8.39;65.74;95449.88;10357904;28;2138;-83
2021/05/09 03:08:34;;;;;;;;;;;9.50;99.90;;;8.42;65.85;95433.28;10350096;28;2052;-83
2021/05/09 03:13:36;;;;;;;;;;;9.70;99.90;;;8.43;65.31;95439.44;10381317;28;2163;-85
2021/05/09 03:18:38;;;;;;;;;;;9.50;99.90;;;8.34;66.22;95439.16;10354748;28;2163;-85
2021/05/09 03:23:40;;;;;;;;;;;9.90;99.90;;;8.29;66.43;95447.19;10348978;28;1980;-84
2021/05/09 03:28:42;;;;;;;;;;;9.80;99.90;;;8.13;65.64;95433.75;10366128;28;2094;-83
2021/05/09 03:33:43;;;;;;;;;;;9.90;99.90;;;8.07;66.67;95434.03;10354904;28;2190;-81
2021/05/09 03:38:45;;;;;;;;;;;9.20;99.90;;;8.00;67.20;95442.31;10381988;28;2254;-82
2021/05/09 03:43:47;;;;;;;;;;;9.60;99.90;;;8.01;66.51;95427.84;10369394;28;2094;-84
2021/05/09 03:48:49;;;;;;;;;;;9.50;99.90;;;8.12;66.71;95437.50;10374439;28;2101;-81
2021/05/09 03:53:51;;;;;;;;;;;9.10;99.90;;;8.02;67.00;95448.22;10362403;28;2300;-84
2021/05/09 03:58:53;;;;;;;;;;;9.40;99.90;;;8.02;66.98;95437.50;10350711;28;1991;-83
2021/05/09 04:03:55;;;;;;;;;;;9.40;99.90;;;8.06;66.80;95427.06;10352400;28;2150;-82
2021/05/09 04:08:56;;;;;;;;;;;9.40;99.90;;;8.24;66.05;95436.47;10381432;28;2108;-82
2021/05/09 04:13:58;;;;;;;;;;;9.40;99.90;;;8.62;65.06;95441.31;10363944;28;2295;-84
2021/05/09 04:19:00;;;;;;;;;;;9.40;99.90;;;9.00;62.85;95435.63;10392017;28;2139;-83
2021/05/09 04:24:02;;;;;;;;;;;10.00;99.90;;;9.40;61.77;95432.81;10407425;28;2101;-82
2021/05/09 04:29:04;;;;;;;;;;;10.10;99.90;;;9.78;60.87;95427.03;10360601;28;2135;-83
2021/05/09 04:34:06;;;;;;;;;;;10.40;99.90;;;10.08;59.82;95424.16;10361838;28;2071;-82
2021/05/09 04:39:07;;;;;;;;;;;10.80;99.10;;;10.52;58.21;95423.34;10366626;28;2238;-84
2021/05/09 04:44:09;;;;;;;;;;;11.20;97.90;;;10.86;57.34;95428.69;10369805;28;2294;-83
2021/05/09 04:49:11;;;;;;;;;;;11.60;96.70;;;11.29;55.65;95429.59;10379008;28;2118;-81
2021/05/09 04:54:13;;;;;;;;;;;12.00;95.50;;;11.72;54.29;95412.69;10370626;28;2077;-82
2021/05/09 04:59:15;;;;;;;;;;;12.40;93.80;;;12.07;52.85;95414.09;10383058;28;2135;-84
2021/05/09 05:04:17;;;;;;;;;;;12.70;91.70;;;12.25;52.21;95407.09;10360571;28;2090;-81
2021/05/09 05:09:19;;;;;;;;;;;13.00;90.30;;;12.75;49.81;95418.97;10370048;28;2113;-83
2021/05/09 05:14:20;;;;;;;;;;;13.40;88.90;;;13.15;49.61;95403.16;10364358;28;1697;-82
2021/05/09 05:19:22;;;;;;;;;;;13.80;87.70;;;13.52;47.30;95408.38;10365832;28;1974;-81
2021/05/09 05:24:24;;;;;;;;;;;14.30;85.40;;;13.98;45.65;95417.44;10380015;28;1914;-82
2021/05/09 05:29:26;;;;;;;;;;;14.60;83.50;;;14.34;46.10;95409.34;10351165;28;2209;-84
2021/05/09 05:34:28;;;;;;;;;;;15.00;83.30;;;14.60;45.02;95407.66;10362350;28;2218;-85
2021/05/09 05:39:29;;;;;;;;;;;15.40;81.50;;;14.88;44.96;95402.09;10377497;28;2200;-83
2021/05/09 05:44:31;;;;;;;;;;;15.70;81.10;;;15.25;43.16;95398.16;10353982;28;2424;-81
2021/05/09 05:49:33;;;;;;;;;;;16.00;79.70;;;15.49;41.82;95394.25;10375388;28;2271;-84
2021/05/09 05:54:35;;;;;;;;;;;16.20;77.90;;;15.80;41.46;95388.81;10345339;28;2232;-84
2021/05/09 05:59:37;;;;;;;;;;;16.50;76.90;;;15.96;41.55;95392.66;10351555;28;2254;-83
2021/05/09 06:04:40;;;;;;;;;;;16.80;76.00;;;16.23;41.38;95390.78;10349195;28;2252;-85
2021/05/09 06:09:42;;;;;;;;;;;17.00;75.40;;;16.78;40.44;95390.13;10350263;28;2339;-83
2021/05/09 06:14:44;;;;;;;;;;;17.40;74.90;;;16.99;39.63;95391.84;10352223;28;2247;-84
2021/05/09 06:19:45;;;;;;;;;;;17.80;73.70;;;17.30;38.84;95382.63;10351291;28;2164;-83
2021/05/09 06:24:47;;;;;;;;;;;18.10;72.30;;;17.69;38.09;95386.94;10360114;28;2293;-85
2021/05/09 06:29:50;;;;;;;;;;;18.40;71.90;;;17.91;37.64;95382.34;10384943;28;2309;-84
2021/05/09 06:34:51;;;;;;;;;;;18.70;70.60;;;18.39;36.79;95386.50;10372066;28;2234;-84
2021/05/09 06:39:53;;;;;;;;;;;19.00;70.20;;;18.67;36.46;95387.56;10399351;28;1938;-85
2021/05/09 06:44:59;;;;;;;;;;;19.30;69.50;;;18.84;36.25;95375.72;10412928;28;1253;-83
2021/05/09 06:50:00;;;;;;;;;;;19.70;68.00;;;19.39;34.77;95380.69;10390744;28;1702;-85
2021/05/09 06:55:02;;;;;;;;;;;19.90;67.00;;;19.44;35.48;95377.75;10386737;28;1586;-84
2021/05/09 07:00:04;;;;;;;;;;;20.20;66.80;;;19.75;34.07;95381.91;10384054;28;2241;-83
2021/05/09 07:05:06;;;;;;;;;;;20.50;64.90;;;19.95;34.18;95375.50;10370662;28;1851;-83
2021/05/09 07:10:08;;;;;;;;;;;20.80;64.80;;;20.22;32.60;95370.47;10372020;28;1839;-85
2021/05/09 07:15:11;;;;;;;;;;;21.00;63.10;;;20.41;33.63;95365.16;10378634;28;2026;-83
2021/05/09 07:20:14;;;;;;;;;;;21.20;63.50;;;20.71;32.46;95368.41;10359881;28;2183;-83
2021/05/09 07:25:17;;;;;;;;;;;21.60;62.10;;;20.97;31.90;95376.13;10359015;28;1882;-85
2021/05/09 07:30:18;;;;;;;;;;;21.80;61.50;;;21.07;32.06;95368.59;10371589;28;2030;-84
2021/05/09 07:35:20;;;;;;;;;;;22.00;60.80;;;21.33;31.24;95362.63;10386329;28;2068;-86
2021/05/09 07:40:22;;;;;;;;;;;22.20;60.10;;;21.50;31.58;95360.34;10369215;28;2240;-85
2021/05/09 07:45:24;;;;;;;;;;;22.40;60.00;;;21.77;31.18;95355.13;10383502;28;2556;-84
2021/05/09 07:50:26;;;;;;;;;;;22.60;59.30;;;21.82;30.76;95354.81;10385362;28;1953;-83
2021/05/09 07:55:28;;;;;;;;;;;22.90;58.40;;;22.14;31.10;95350.13;10382166;28;2170;-84
2021/05/09 08:00:30;;;;;;;;;;;23.20;58.50;;;22.51;30.33;95355.97;10370028;28;2278;-85
2021/05/09 08:05:32;;;;;;;;;;;23.40;58.00;;;22.97;29.22;95353.41;10364000;28;2254;-83
2021/05/09 08:10:35;;;;;;;;;;;23.70;57.00;;;23.23;29.25;95346.44;10384253;28;2418;-85
2021/05/09 08:15:37;;;;;;;;;;;24.00;56.90;;;23.14;29.33;95341.97;10377590;28;2777;-82
2021/05/09 08:20:39;;;;;;;;;;;24.10;56.20;;;23.03;29.90;95341.00;10378762;28;2228;-84
2021/05/09 08:25:41;;;;;;;;;;;24.00;56.00;;;23.35;29.67;95338.00;10355313;28;2680;-82
2021/05/09 08:30:43;;;;;;;;;;;24.20;56.40;;;23.36;29.51;95332.16;10377976;28;2271;-85
2021/05/09 08:35:45;;;;;;;;;;;24.30;55.60;;;23.72;29.12;95327.28;10380201;28;2398;-83
2021/05/09 08:40:47;;;;;;;;;;;24.60;55.50;;;23.60;29.12;95330.19;10370795;28;2694;-82
2021/05/09 08:45:49;;;;;;;;;;;24.60;55.10;;;23.92;29.08;95317.78;10370930;28;2153;-83
2021/05/09 08:50:50;;;;;;;;;;;24.80;55.10;;;24.26;29.41;95318.66;10354160;28;2223;-84
2021/05/09 08:55:52;;;;;;;;;;;25.10;55.30;;;24.46;28.82;95313.03;10392114;28;2560;-84
2021/05/09 09:00:54;;;;;;;;;;;25.40;54.70;;;24.40;27.79;95309.03;10387597;28;2209;-84
2021/05/09 09:05:56;;;;;;;;;;;25.60;52.70;;;24.82;28.32;95305.22;10399325;28;2160;-86
2021/05/09 09:10:58;;;;;;;;;;;25.70;53.60;;;24.84;28.01;95298.16;10374487;28;1520;-83
2021/05/09 09:15:59;;;;;;;;;;;25.90;52.70;;;24.85;28.66;95297.00;10362029;28;2470;-87
2021/05/09 09:21:02;;;;;;;;;;;25.90;53.00;;;24.98;28.11;95292.00;10363720;28;2136;-83
2021/05/09 09:26:04;;;;;;;;;;;26.10;52.70;;;24.84;27.33;95283.63;10376665;28;2346;-84
2021/05/09 09:31:06;;;;;;;;;;;26.00;51.50;;;24.67;28.35;95280.31;10351588;28;2262;-85
2021/05/09 09:36:08;;;;;;;;;;;25.70;52.20;;;24.64;28.38;95272.81;10386512;28;2132;-84
2021/05/09 09:41:10;;;;;;;;;;;25.80;52.00;;;24.94;28.47;95263.69;10377985;28;2108;-85
2021/05/09 09:46:12;;;;;;;;;;;25.90;52.40;;;24.97;27.15;95257.44;10360806;28;2070;-83
2021/05/09 09:51:14;;;;;;;;;;;26.00;51.50;;;25.19;25.46;95259.22;10375573;28;1714;-84
2021/05/09 09:56:16;;;;;;;;;;;26.10;49.70;;;24.93;25.15;95253.84;10381702;28;1914;-82
2021/05/09 10:01:19;;;;;;;;;;;26.00;48.50;;;25.32;23.47;95245.97;10367627;28;2153;-84
2021/05/09 10:06:21;;;;;;;;;;;26.20;47.00;;;25.56;23.74;95239.09;10359535;28;1615;-85
2021/05/09 10:11:23;;;;;;;;;;;26.50;46.70;;;25.21;21.81;95232.16;10393966;28;1997;-85
2021/05/09 10:16:26;;;;;;;;;;;26.40;44.40;;;25.02;22.21;95235.09;10360625;28;2076;-85
2021/05/09 10:21:27;;;;;;;;;;;26.10;44.30;;;25.12;23.23;95236.38;10366919;28;1914;-84
2021/05/09 10:26:29;;;;;;;;;;;26.10;45.40;;;24.97;25.18;95232.69;10359053;28;2106;-83
2021/05/09 10:31:31;;;;;;;;;;;26.10;47.20;;;24.67;23.91;95232.78;10371379;28;2306;-83
2021/05/09 10:36:33;;;;;;;;;;;25.90;45.60;;;25.01;23.29;95219.78;10394493;28;2053;-85
2021/05/09 10:41:41;;;;;;;;;;;25.90;45.30;;;24.91;22.66;95217.72;10388194;28;2227;-83
2021/05/09 10:46:43;;;;;;;;;;;25.90;44.20;;;25.86;20.53;95212.16;10405894;23;2308;-84
2021/05/09 10:51:45;;;;;;;;;;;26.30;43.20;;;26.08;19.89;95206.75;10381578;28;1945;-86
2021/05/09 10:56:47;;;;;;;;;;;27.20;41.30;;;26.51;17.96;95210.47;10365780;28;2260;-86
2021/05/09 11:01:49;;;;;;;;;;;27.60;39.30;;;26.33;17.31;95201.34;10385143;28;2031;-84
2021/05/09 11:06:51;;;;;;;;;;;27.60;38.10;;;26.48;17.73;95193.94;10367633;28;2303;-84
2021/05/09 11:11:53;;;;;;;;;;;27.70;38.30;;;26.57;17.80;95191.59;10376176;28;2132;-83
2021/05/09 11:16:54;;;;;;;;;;;27.90;38.10;;;26.48;17.93;95178.19;10368297;28;2073;-85
2021/05/09 11:21:56;;;;;;;;;;;27.70;38.10;;;26.05;18.56;95169.78;10384910;28;1910;-84
2021/05/09 11:26:58;;;;;;;;;;;27.60;37.90;;;25.83;17.34;95165.34;10382014;28;2324;-86
2021/05/09 11:32:00;;;;;;;;;;;27.10;37.00;;;25.47;17.64;95158.84;10362000;28;2216;-85
2021/05/09 11:37:02;;;;;;;;;;;26.70;37.40;;;25.34;19.15;95158.38;10368832;28;2283;-86
2021/05/09 11:42:04;;;;;;;;;;;26.40;38.80;;;24.99;18.88;95145.13;10380825;28;2302;-84
2021/05/09 11:47:06;;;;;;;;;;;26.10;38.80;;;24.99;19.71;95134.13;10363143;28;2009;-85
2021/05/09 11:52:10;;;;;;;;;;;25.90;39.60;;;25.33;19.81;95127.31;10364961;28;1739;-84
2021/05/09 11:57:13;;;;;;;;;;;26.00;40.20;;;25.48;18.87;95127.41;10355040;28;1910;-84
2021/05/09 12:02:15;;;;;;;;;;;26.30;38.80;;;25.45;18.05;95117.97;10362715;28;2045;-85
2021/05/09 12:07:16;;;;;;;;;;;26.30;37.80;;;25.85;17.86;95116.19;10358639;28;1930;-83
2021/05/09 12:12:18;;;;;;;;;;;26.50;37.70;;;25.98;16.61;95100.91;10375424;28;1499;-85
2021/05/09 12:17:21;;;;;;;;;;;26.80;36.10;;;26.39;17.26;95095.88;10370828;28;1895;-85
2021/05/09 12:22:23;;;;;;;;;;;27.00;37.50;;;26.60;15.99;95083.34;10364962;28;2129;-86
2021/05/09 12:27:25;;;;;;;;;;;27.40;35.40;;;26.19;16.59;95080.88;10365512;28;2070;-86
2021/05/09 12:32:30;;;;;;;;;;;27.10;36.00;;;26.43;17.64;95076.63;10369656;28;1739;-85
2021/05/09 12:37:34;;;;;;;;;;;27.10;37.20;;;26.50;15.88;95054.56;10387406;28;2039;-85
2021/05/09 12:42:36;;;;;;;;;;;27.30;35.10;;;26.31;16.56;95057.69;10369377;28;2067;-87
2021/05/09 12:47:38;;;;;;;;;;;27.30;35.70;;;26.54;16.84;95054.59;10373397;28;2067;-86
2021/05/09 12:52:39;;;;;;;;;;;27.40;36.30;;;26.47;16.12;95038.06;10377105;28;1411;-83
2021/05/09 12:57:41;;;;;;;;;;;27.30;35.30;;;26.71;17.23;95037.22;10362557;28;1976;-84
2021/05/09 13:02:43;;;;;;;;;;;27.40;36.40;;;26.68;17.15;95027.00;10367461;28;2079;-87
2021/05/09 13:07:46;;;;;;;;;;;27.60;36.10;;;26.38;17.90;95019.91;10368956;28;2101;-85
2021/05/09 13:12:48;;;;;;;;;;;27.50;36.50;;;26.73;18.33;95017.56;10375261;28;1730;-86
2021/05/09 13:17:50;;;;;;;;;;;27.50;37.10;;;26.54;19.46;95007.75;10379785;28;1962;-81
2021/05/09 13:22:52;;;;;;;;;;;27.50;38.40;;;26.72;18.99;94994.72;10401541;28;2146;-83
2021/05/09 13:27:54;;;;;;;;;;;27.60;38.20;;;26.74;18.65;94986.06;10410299;28;2052;-88
2021/05/09 13:32:56;;;;;;;;;;;27.70;37.60;;;26.48;18.81;94984.50;10378963;28;2025;-86
2021/05/09 13:37:58;;;;;;;;;;;27.40;37.60;;;26.36;17.95;94978.19;10366318;28;1960;-86
2021/05/09 13:43:00;;;;;;;;;;;27.40;36.70;;;26.50;20.17;94973.88;10378196;28;2020;-86
2021/05/09 13:48:02;;;;;;;;;;;27.30;39.30;;;26.34;20.53;94964.03;10363719;28;2051;-87
2021/05/09 13:53:04;;;;;;;;;;;27.30;39.50;;;26.07;21.09;94949.84;10362010;28;2021;-85
2021/05/09 13:58:06;;;;;;;;;;;27.10;40.40;;;26.22;21.84;94960.88;10365288;28;2135;-86
2021/05/09 14:03:07;;;;;;;;;;;26.90;40.90;;;26.62;19.54;94952.19;10393168;28;2182;-86
2021/05/09 14:08:09;;;;;;;;;;;27.20;39.30;;;26.77;18.33;94941.91;10382504;28;1911;-85
2021/05/09 14:13:11;;;;;;;;;;;27.60;37.70;;;26.95;19.48;94928.88;10392213;28;2061;-85
2021/05/09 14:18:17;;;;;;;;;;;27.70;38.50;;;26.62;21.37;94924.63;10391850;28;1983;-86
2021/05/09 14:23:19;;;;;;;;;;;27.60;40.40;;;26.84;19.99;94919.84;10372632;28;2039;-85
2021/05/09 14:28:20;;;;;;;;;;;27.70;39.30;;;26.53;22.47;94912.44;10392150;28;2110;-85
2021/05/09 14:33:22;;;;;;;;;;;27.60;41.20;;;26.54;23.96;94905.75;10376420;28;1897;-84
2021/05/09 14:38:24;;;;;;;;;;;27.50;43.20;;;26.49;24.09;94898.69;10375387;28;1993;-87
2021/05/09 14:43:41;;;;;;;;;;;27.40;43.60;;;26.33;23.84;94901.81;10378653;28;1838;-91
2021/05/09 14:48:51;;;;;;;;;;;27.20;43.20;;;26.17;23.78;94906.97;10408850;28;1754;-85
2021/05/09 14:53:58;;;;;;;;;;;27.10;43.50;;;26.17;24.10;94897.91;10386467;28;1782;-87
2021/05/09 14:59:00;;;;;;;;;;;27.00;43.70;;;26.16;24.63;94886.13;10412245;28;2036;-87
2021/05/09 15:04:02;;;;;;;;;;;27.00;44.50;;;26.18;24.77;94872.72;10380968;28;2068;-85
2021/05/09 15:09:04;;;;;;;;;;;27.10;44.60;;;26.08;25.16;94873.50;10367327;28;2044;-87
2021/05/09 15:14:06;;;;;;;;;;;27.00;44.90;;;26.10;24.81;94860.16;10360110;28;1838;-87
2021/05/09 15:19:07;;;;;;;;;;;26.90;44.10;;;26.27;24.40;94867.59;10377945;28;1945;-88
2021/05/09 15:24:09;;;;;;;;;;;27.10;44.30;;;26.10;23.57;94866.44;10359990;28;1466;-86
2021/05/09 15:29:11;;;;;;;;;;;27.10;43.20;;;25.85;23.50;94849.94;10386888;28;2094;-84
2021/05/09 15:34:13;;;;;;;;;;;26.80;42.60;;;26.03;23.45;94843.66;10380043;28;2131;-86
2021/05/09 15:39:15;;;;;;;;;;;26.80;42.60;;;25.75;23.69;94847.97;10394525;28;2052;-87
2021/05/09 15:44:18;;;;;;;;;;;26.70;42.90;;;25.49;25.00;94843.59;10384083;28;2053;-86
2021/05/09 15:49:21;;;;;;;;;;;26.40;44.10;;;25.63;25.30;94828.28;10389483;28;2233;-85
2021/05/09 15:54:23;;;;;;;;;;;26.30;45.20;;;25.66;25.69;94828.28;10408079;28;2082;-86
2021/05/09 15:59:25;;;;;;;;;;;26.50;45.50;;;25.39;26.25;94832.63;10410075;28;1891;-87
2021/05/09 16:04:27;;;;;;;;;;;26.40;45.80;;;25.10;27.16;94812.50;10398736;28;2075;-83
2021/05/09 16:09:29;;;;;;;;;;;26.00;46.80;;;24.74;27.30;94815.91;10400180;28;1749;-81
2021/05/09 16:14:31;;;;;;;;;;;25.80;46.50;;;24.57;27.80;94807.63;10368211;28;2030;-84
2021/05/09 16:19:33;;;;;;;;;;;25.50;47.30;;;24.35;28.61;94801.25;10385245;28;2298;-83
2021/05/09 16:24:35;;;;;;;;;;;25.30;48.30;;;24.26;29.12;94801.56;10382365;28;2024;-83
2021/05/09 16:29:36;;;;;;;;;;;25.10;48.90;;;24.20;29.47;94787.41;10386146;28;2188;-83
2021/05/09 16:34:41;;;;;;;;;;;25.00;49.40;;;24.12;29.81;94774.84;10364994;28;2148;-83
2021/05/09 16:39:43;;;;;;;;;;;25.00;49.90;;;24.15;30.16;94785.03;10385697;28;2220;-83
2021/05/09 16:44:44;;;;;;;;;;;24.90;50.40;;;24.09;30.53;94781.06;10367145;28;2220;-83
2021/05/09 16:49:46;;;;;;;;;;;24.90;50.80;;;24.15;30.67;94778.75;10373941;28;2235;-85
2021/05/09 16:54:50;;;;;;;;;;;24.90;51.10;;;24.05;30.47;94772.06;10366935;28;2028;-82
2021/05/09 16:59:52;;;;;;;;;;;24.80;50.80;;;23.92;30.57;94782.56;10361418;28;1910;-84
2021/05/09 17:04:54;;;;;;;;;;;24.70;51.00;;;23.82;31.00;94769.56;10378172;28;2044;-84
2021/05/09 17:09:57;;;;;;;;;;;24.60;51.30;;;23.68;31.57;94778.47;10381500;28;2128;-84
2021/05/09 17:14:58;;;;;;;;;;;24.50;51.80;;;23.51;31.73;94779.09;10384412;28;2036;-85
2021/05/09 17:20:00;;;;;;;;;;;24.40;51.90;;;23.31;32.41;94773.06;10362087;28;1927;-85
2021/05/09 17:25:04;;;;;;;;;;;24.20;52.40;;;23.24;32.21;94772.22;10357766;28;2125;-85
2021/05/09 17:30:06;;;;;;;;;;;24.10;52.50;;;23.05;32.73;94776.75;10359641;28;2118;-87
2021/05/09 17:35:08;;;;;;;;;;;24.00;52.90;;;22.90;33.15;94773.13;10361427;28;2142;-85
2021/05/09 17:40:12;;;;;;;;;;;22.90;52.80;;;22.81;33.42;94769.06;10390730;28;2128;-86
2021/05/09 17:45:14;;;;;;;;;;;23.70;53.50;;;22.56;33.69;94766.84;10380505;28;2112;-86
2021/05/09 17:50:17;;;;;;;;;;;23.50;53.90;;;22.39;34.64;94764.66;10370608;28;2174;-85
2021/05/09 17:55:19;;;;;;;;;;;23.40;54.60;;;22.20;35.25;94773.03;10367794;28;2090;-83
2021/05/09 18:00:21;;;;;;;;;;;23.20;55.20;;;21.98;35.28;94772.75;10382028;28;2055;-84
2021/05/09 18:05:23;;;;;;;;;;;23.00;55.40;;;21.79;35.87;94767.41;10368140;28;2011;-84
2021/05/09 18:10:24;;;;;;;;;;;22.80;56.00;;;21.58;36.16;94755.00;10357351;28;2235;-86
2021/05/09 18:15:29;;;;;;;;;;;22.60;56.30;;;21.40;36.43;94753.16;10386205;28;2096;-86
2021/05/09 18:22:32;;;;;;;;;;;22.40;56.50;;;21.21;36.89;94767.66;10381433;28;2415;-85
2021/05/09 18:26:00;;;;;;;;;;;22.20;56.90;;;20.92;37.79;94767.16;10369286;28;1987;-84
2021/05/09 18:31:02;;;;;;;;;;;22.00;57.70;;;20.71;38.38;94761.34;10356591;28;2092;-85
2021/05/09 18:36:04;;;;;;;;;;;21.70;58.30;;;20.49;38.90;94760.94;10362831;28;2324;-83
2021/05/09 18:41:06;;;;;;;;;;;21.60;58.90;;;20.26;39.68;94768.25;10347544;28;2189;-83
2021/05/09 18:46:07;;;;;;;;;;;21.30;59.70;;;20.08;40.38;94773.34;10377137;28;2073;-84
2021/05/09 18:51:09;;;;;;;;;;;21.10;60.30;;;19.88;40.95;94777.22;10374739;28;2052;-85
2021/05/09 18:56:14;;;;;;;;;;;21.00;60.90;;;19.71;41.80;94789.28;10354017;28;2053;-85
2021/05/09 19:01:16;;;;;;;;;;;20.80;61.80;;;19.59;42.26;94783.94;10334628;28;2406;-82
2021/05/09 19:06:21;;;;;;;;;;;20.60;62.20;;;19.48;42.64;94782.91;10365667;28;2093;-82
2021/05/09 19:11:23;;;;;;;;;;;20.50;63.10;;;19.21;43.57;94790.03;10328110;28;2890;-83
2021/05/09 19:16:25;;;;;;;;;;;20.30;63.60;;;19.02;44.24;94790.72;10355015;28;2077;-83
2021/05/09 19:21:27;;;;;;;;;;;20.10;64.50;;;18.75;45.16;94779.56;10360089;28;2140;-83
2021/05/09 19:26:29;;;;;;;;;;;20.00;65.20;;;18.68;45.73;94775.88;10364733;28;2503;-83
2021/05/09 19:31:31;;;;;;;;;;;19.80;66.00;;;18.42;46.72;94789.91;10347475;28;2216;-84
2021/05/09 19:36:33;;;;;;;;;;;19.60;66.50;;;18.29;47.32;94784.53;10381167;28;2253;-82
2021/05/09 19:41:36;;;;;;;;;;;19.40;67.30;;;18.15;47.89;94778.69;10365620;28;2103;-82
2021/05/09 19:46:38;;;;;;;;;;;19.30;68.30;;;18.06;48.49;94791.63;10377714;28;2405;-81
2021/05/09 19:51:41;;;;;;;;;;;19.20;68.90;;;17.94;49.02;94786.22;10369429;28;2404;-82
2021/05/09 19:57:00;;;;;;;;;;;19.00;69.60;;;17.95;49.21;94785.09;10354952;28;2305;-82
2021/05/09 20:02:02;;;;;;;;;;;18.90;70.20;;;17.92;49.85;94785.78;10373443;28;2107;-83
2021/05/09 20:07:05;;;;;;;;;;;18.90;70.80;;;17.79;50.10;94788.53;10365093;28;2148;-81
2021/05/09 20:12:09;;;;;;;;;;;18.60;71.00;;;17.72;49.74;94793.75;10356961;28;2335;-85
2021/05/09 20:17:11;;;;;;;;;;;18.70;74.00;;;17.62;48.99;94788.75;10378698;28;2076;-84
2021/05/09 20:22:13;;;;;;;;;;;18.60;76.90;;;17.63;47.59;94784.91;10381048;28;2433;-83
2021/05/09 20:27:15;;;;;;;;;;;18.40;99.90;;;17.74;44.99;94783.31;10383718;28;2146;-82
2021/05/09 20:32:16;;;;;;;;;;;18.70;67.10;;;18.05;41.44;94785.41;10374354;28;2060;-85
2021/05/09 20:37:18;;;;;;;;;;;18.90;64.00;;;18.30;39.01;94791.53;10377572;28;2163;-82
2021/05/09 20:42:20;;;;;;;;;;;19.00;61.40;;;18.29;38.16;94792.69;10387576;28;2048;-84
2021/05/09 20:47:24;;;;;;;;;;;19.20;59.90;;;18.39;36.54;94791.41;10392236;28;2143;-81
2021/05/09 20:52:26;;;;;;;;;;;19.20;58.30;;;18.54;35.13;94789.84;10381770;28;2151;-83
2021/05/09 20:57:28;;;;;;;;;;;19.30;57.10;;;18.55;34.54;94796.88;10367477;28;2037;-83
2021/05/09 21:02:31;;;;;;;;;;;19.40;56.30;;;18.46;34.35;94794.31;10378140;28;2024;-83
2021/05/09 21:07:34;;;;;;;;;;;19.30;55.60;;;18.45;33.71;94794.66;10385813;28;2162;-85
2021/05/09 21:12:36;;;;;;;;;;;19.30;55.10;;;18.44;33.61;94799.31;10359291;28;2074;-85
2021/05/09 21:17:38;;;;;;;;;;;19.40;54.80;;;18.44;33.41;94801.22;10379482;28;2068;-83
2021/05/09 21:22:40;;;;;;;;;;;19.40;54.30;;;18.46;33.09;94804.41;10384536;28;2111;-83
2021/05/09 21:27:42;;;;;;;;;;;19.40;54.10;;;18.43;33.54;94805.09;10382418;28;2113;-83
2021/05/09 21:32:54;;;;;;;;;;;19.40;54.20;;;18.49;33.24;94815.38;10386605;28;2147;-83
2021/05/09 21:37:57;;;;;;;;;;;19.30;54.40;;;18.29;33.95;94809.00;10367179;28;2176;-82
2021/05/09 21:42:58;;;;;;;;;;;19.30;54.50;;;18.28;33.57;94812.88;10385629;28;2179;-84
2021/05/09 21:48:11;;;;;;;;;;;19.20;54.50;;;18.24;34.13;94803.81;10587912;27;924202;-84
2021/05/09 21:53:13;;;;;;;;;;;19.20;54.60;;;18.27;33.63;94808.56;10596843;28;2162;-84
2021/05/09 21:58:18;;;;;;;;;;;19.10;54.60;;;18.06;34.42;94813.38;10575350;28;2195;-83
2021/05/09 22:03:20;;;;;;;;;;;19.00;55.00;;;18.07;34.92;94820.44;10587563;28;2214;-84
2021/05/09 22:08:21;;;;;;;;;;;19.00;55.50;;;18.01;35.09;94828.03;10567703;28;2082;-83
2021/05/09 22:13:24;;;;;;;;;;;19.00;55.60;;;17.97;35.29;94826.34;10570934;28;2069;-83
2021/05/09 22:18:27;;;;;;;;;;;18.90;55.90;;;17.90;35.01;94826.13;10582956;28;2180;-84
2021/05/09 22:23:30;;;;;;;;;;;18.80;55.80;;;17.89;35.50;94829.97;10585621;28;2069;-83
2021/05/09 22:28:32;;;;;;;;;;;18.80;56.00;;;17.90;35.91;94837.00;10568990;28;1943;-82
2021/05/09 22:33:37;;;;;;;;;;;18.80;56.50;;;17.92;35.79;94840.16;10574019;28;2150;-83
2021/05/09 22:38:39;;;;;;;;;;;18.80;56.30;;;17.85;35.45;94835.28;10594437;28;1896;-82
2021/05/09 22:43:41;;;;;;;;;;;18.70;56.20;;;17.89;35.67;94846.28;10557113;28;1962;-83
2021/05/09 22:48:43;;;;;;;;;;;18.80;56.20;;;17.88;35.62;94855.56;10579059;28;2107;-83
2021/05/09 22:53:45;;;;;;;;;;;18.80;56.20;;;17.79;35.84;94853.75;10556682;28;2072;-83
2021/05/09 22:58:47;;;;;;;;;;;18.80;56.30;;;17.80;35.71;94855.34;10540436;28;1676;-85
2021/05/09 23:03:48;;;;;;;;;;;18.70;56.30;;;17.68;35.92;94858.03;10529821;28;2052;-84
2021/05/09 23:08:50;;;;;;;;;;;18.70;56.50;;;17.74;35.70;94854.00;10520386;28;2018;-83
2021/05/09 23:13:52;;;;;;;;;;;18.60;56.40;;;17.76;35.50;94838.16;10552957;28;1972;-84